Time;durP1;ratioP1;P1;durP2;ratioP2;P2;SDS_P1;SDS_P2;PMS_P1;PMS_P2;Temp;Humidity;BMP_temperature;BMP_pressure;BME280_temperature;BME280_humidity;BME280_pressure;Samples;Min_cycle;Max_cycle;Signal;HPM_P1;HPM_P2
2021/09/24 00:01:49;;;;;;;12.23;4.53;;;;;;;16.45;85.09;101645.94;5111938;28;20043;-56
2021/09/24 00:04:17;;;;;;;11.32;4.30;;;;;;;16.49;84.75;101638.75;5103414;28;20116;-58
2021/09/24 00:06:45;;;;;;;12.13;3.90;;;;;;;16.50;84.72;101643.16;5113826;28;20043;-58
2021/09/24 00:09:13;;;;;;;8.93;3.65;;;;;;;16.48;84.60;101636.31;5114185;28;20095;-57
2021/09/24 00:11:41;;;;;;;9.98;3.45;;;;;;;16.44;84.55;101637.97;5112192;28;20036;-57
2021/09/24 00:14:09;;;;;;;9.40;3.45;;;;;;;16.41;84.70;101636.63;5102462;28;20078;-59
2021/09/24 00:16:38;;;;;;;11.23;3.50;;;;;;;16.39;84.90;101636.09;5107164;28;20071;-57
2021/09/24 00:19:06;;;;;;;7.43;2.90;;;;;;;16.37;85.41;101632.78;5112401;28;20040;-57
2021/09/24 00:21:33;;;;;;;12.23;3.90;;;;;;;16.36;85.43;101636.66;5111823;28;20040;-58
2021/09/24 00:24:01;;;;;;;10.35;3.72;;;;;;;16.37;85.20;101638.31;5111965;28;20110;-58
2021/09/24 00:26:30;;;;;;;11.20;3.67;;;;;;;16.38;84.69;101635.28;5113722;28;20471;-58
2021/09/24 00:28:58;;;;;;;10.82;3.83;;;;;;;16.39;84.78;101630.59;5113922;28;20471;-58
2021/09/24 00:31:26;;;;;;;8.00;3.45;;;;;;;16.41;84.76;101636.63;5113403;28;20482;-55
2021/09/24 00:34:06;;;;;;;7.70;3.45;;;;;;;16.40;84.41;101633.06;5095740;28;20036;-57
2021/09/24 00:36:35;;;;;;;11.07;3.53;;;;;;;16.38;84.17;101635.28;5113944;28;20541;-58
2021/09/24 00:39:02;;;;;;;8.00;2.83;;;;;;;16.38;84.44;101634.47;5113402;28;20135;-58
2021/09/24 00:41:30;;;;;;;9.50;3.38;;;;;;;16.37;84.57;101632.78;5113545;28;20576;-58
2021/09/24 00:44:05;;;;;;;11.82;3.42;;;;;;;16.38;84.19;101628.97;5111483;28;20044;-55
2021/09/24 00:46:32;;;;;;;11.02;3.53;;;;;;;16.36;84.36;101628.41;5111633;27;20040;-57
2021/09/24 00:49:18;;;;;;;13.43;3.78;;;;;;;16.36;84.24;101626.47;5113056;27;20047;-56
2021/09/24 00:51:56;;;;;;;8.57;3.78;;;;;;;16.36;84.25;101631.16;5113287;28;20078;-56
2021/09/24 00:54:24;;;;;;;8.90;2.95;;;;;;;16.36;84.07;101626.47;5111530;28;20040;-55
2021/09/24 00:57:02;;;;;;;7.65;3.38;;;;;;;16.40;84.16;101633.06;5110593;28;20042;-58
2021/09/24 00:59:30;;;;;;;10.27;3.88;;;;;;;16.38;84.37;101632.53;5101956;28;20040;-59
2021/09/24 01:01:58;;;;;;;9.48;3.50;;;;;;;16.35;84.14;101624.00;5101158;28;20131;-56
2021/09/24 01:04:26;;;;;;;7.60;2.88;;;;;;;16.34;84.00;101619.63;5110610;28;20391;-55
2021/09/24 01:06:54;;;;;;;9.88;3.45;;;;;;;16.34;84.25;101616.88;5109276;28;20040;-57
2021/09/24 01:09:22;;;;;;;7.82;3.40;;;;;;;16.34;84.01;101603.94;5102949;28;20490;-58
2021/09/24 01:11:51;;;;;;;10.60;3.42;;;;;;;16.34;83.89;101611.38;5106285;28;20040;-58
2021/09/24 01:14:19;;;;;;;7.95;3.10;;;;;;;16.33;83.94;101609.72;5105811;27;20043;-57
2021/09/24 01:16:47;;;;;;;10.77;3.47;;;;;;;16.32;84.17;101602.59;5105128;28;20401;-58
2021/09/24 01:19:14;;;;;;;6.28;2.88;;;;;;;16.32;83.81;101600.66;5102683;28;20096;-58
2021/09/24 01:21:42;;;;;;;9.63;3.30;;;;;;;16.32;83.77;101592.41;5107133;28;20064;-58
2021/09/24 01:24:10;;;;;;;7.15;3.22;;;;;;;16.34;84.00;101594.88;5103507;28;20058;-57
2021/09/24 01:26:49;;;;;;;6.05;3.08;;;;;;;16.33;84.27;101598.72;5103889;28;20071;-58
2021/09/24 01:29:17;;;;;;;11.35;3.60;;;;;;;16.32;84.41;101597.91;5112610;28;20035;-55
2021/09/24 01:31:45;;;;;;;11.23;3.78;;;;;;;16.32;84.22;101591.59;5111106;28;20486;-56
2021/09/24 01:34:12;;;;;;;7.72;3.00;;;;;;;16.32;83.97;101591.59;5110230;28;20055;-57
2021/09/24 01:36:40;;;;;;;9.27;4.00;;;;;;;16.31;84.30;101585.28;5110709;28;20405;-55
2021/09/24 01:39:09;;;;;;;10.02;5.03;;;;;;;16.32;84.85;101580.59;5112382;28;20111;-55
2021/09/24 01:41:39;;;;;;;10.27;4.20;;;;;;;16.32;84.88;101575.09;5110942;28;20043;-56
2021/09/24 01:44:07;;;;;;;10.90;4.32;;;;;;;16.31;84.79;101584.47;5098537;28;20054;-56
2021/09/24 01:46:39;;;;;;;10.45;4.63;;;;;;;16.32;85.03;101588.84;5109965;28;20482;-56
2021/09/24 01:49:08;;;;;;;11.95;6.75;;;;;;;16.32;85.84;101583.34;5105018;28;20093;-58
2021/09/24 01:51:37;;;;;;;12.55;5.38;;;;;;;16.30;85.69;101588.31;5111703;28;20489;-55
2021/09/24 01:54:06;;;;;;;11.73;5.63;;;;;;;16.30;85.71;101577.31;5111616;28;20039;-59
2021/09/24 01:56:35;;;;;;;11.35;5.15;;;;;;;16.32;85.66;101583.34;5112214;28;20043;-58
2021/09/24 01:59:04;;;;;;;13.55;6.03;;;;;;;16.32;85.86;101581.41;5110279;28;20059;-58
2021/09/24 02:01:31;;;;;;;14.80;6.68;;;;;;;16.33;85.93;101580.31;5099168;28;20051;-58
2021/09/24 02:04:11;;;;;;;18.17;8.50;;;;;;;16.30;86.42;101574.56;5098133;28;20047;-57
2021/09/24 02:06:38;;;;;;;16.77;8.90;;;;;;;16.27;86.92;101577.88;5100037;28;20051;-56
2021/09/24 02:09:06;;;;;;;15.68;7.72;;;;;;;16.24;87.05;101584.78;5088132;28;20047;-53
2021/09/24 02:11:34;;;;;;;17.15;8.77;;;;;;;16.26;87.04;101584.47;5106453;28;20043;-55
2021/09/24 02:14:02;;;;;;;13.93;7.85;;;;;;;16.27;87.38;101583.38;5110041;28;20043;-57
2021/09/24 02:16:30;;;;;;;17.25;10.02;;;;;;;16.27;87.93;101583.38;5104698;28;20391;-58
2021/09/24 02:18:58;;;;;;;19.50;10.77;;;;;;;16.27;87.96;101575.13;5114054;28;20039;-58
2021/09/24 02:21:26;;;;;;;19.95;9.80;;;;;;;16.27;87.42;101567.69;5108075;28;20042;-58
2021/09/24 02:23:55;;;;;;;21.67;12.40;;;;;;;16.27;88.25;101575.13;5113242;28;20064;-58
2021/09/24 02:26:22;;;;;;;17.80;11.00;;;;;;;16.28;87.63;101569.31;5113740;28;20115;-58
2021/09/24 02:29:08;;;;;;;21.95;13.82;;;;;;;16.28;87.78;101568.50;5113854;28;20051;-57
2021/09/24 02:31:36;;;;;;;21.00;12.10;;;;;;;16.27;88.09;101569.63;5097912;28;20038;-58
2021/09/24 02:34:04;;;;;;;25.85;13.75;;;;;;;16.29;88.09;101561.91;5109399;28;20435;-58
2021/09/24 02:36:32;;;;;;;23.58;12.57;;;;;;;16.30;88.39;101560.81;5107455;28;20494;-58
2021/09/24 02:38:59;;;;;;;30.95;16.30;;;;;;;16.29;88.74;101556.41;5111690;28;20185;-58
2021/09/24 02:41:27;;;;;;;32.75;17.73;;;;;;;16.29;89.07;101559.16;5110180;28;20127;-58
2021/09/24 02:43:55;;;;;;;38.22;18.50;;;;;;;16.27;89.69;101561.38;5111680;28;20047;-59
2021/09/24 02:46:23;;;;;;;29.00;16.25;;;;;;;16.25;89.80;101567.16;5110041;28;20147;-58
2021/09/24 02:48:51;;;;;;;38.30;18.80;;;;;;;16.24;90.04;101559.22;5111623;28;20044;-59
2021/09/24 02:51:19;;;;;;;24.88;13.50;;;;;;;16.21;90.09;101563.38;5109757;28;20081;-55
2021/09/24 02:53:46;;;;;;;38.47;18.65;;;;;;;16.21;91.13;101548.78;5111805;28;20043;-58
2021/09/24 02:56:14;;;;;;;32.22;15.95;;;;;;;16.22;90.77;101547.69;5109690;28;20035;-59
2021/09/24 02:58:41;;;;;;;36.70;19.73;;;;;;;16.24;90.93;101553.72;5110262;28;20126;-56
2021/09/24 03:01:10;;;;;;;26.50;12.30;;;;;;;16.25;90.24;101553.41;5109326;28;20052;-58
2021/09/24 03:03:38;;;;;;;28.25;13.18;;;;;;;16.26;89.93;101548.72;5111328;28;20514;-58
2021/09/24 03:06:06;;;;;;;34.25;18.33;;;;;;;16.25;90.54;101555.34;5110609;28;20573;-58
2021/09/24 03:08:34;;;;;;;29.10;14.63;;;;;;;16.24;90.84;101550.97;5109577;28;20089;-58
2021/09/24 03:11:01;;;;;;;35.90;19.30;;;;;;;16.26;90.49;101551.47;5108103;28;20490;-58
2021/09/24 03:13:29;;;;;;;28.60;14.85;;;;;;;16.25;90.60;101552.59;5110695;28;20046;-58
2021/09/24 03:15:59;;;;;;;25.63;12.10;;;;;;;16.25;90.69;101553.41;5110518;28;20494;-56
2021/09/24 03:18:26;;;;;;;28.77;14.93;;;;;;;16.25;90.49;101550.66;5104740;28;20039;-57
2021/09/24 03:20:55;;;;;;;26.10;13.82;;;;;;;16.25;90.38;101547.09;5109741;28;20397;-57
2021/09/24 03:23:23;;;;;;;42.90;19.58;;;;;;;16.23;91.19;101552.06;5105308;28;20383;-56
2021/09/24 03:25:50;;;;;;;34.83;16.90;;;;;;;16.21;91.26;101548.78;5098636;28;20126;-58
2021/09/24 03:28:18;;;;;;;43.22;18.08;;;;;;;16.19;90.99;101552.66;5108873;28;20393;-58
2021/09/24 03:30:46;;;;;;;41.30;20.48;;;;;;;16.19;91.49;101555.41;5114999;28;20036;-57
2021/09/24 03:33:14;;;;;;;42.88;21.23;;;;;;;16.19;91.71;101546.34;5112654;28;20034;-57
2021/09/24 03:35:42;;;;;;;39.10;18.33;;;;;;;16.22;90.76;101550.44;5114805;28;20031;-58
2021/09/24 03:38:09;;;;;;;39.53;22.48;;;;;;;16.23;91.27;101549.31;5113188;28;20115;-58
2021/09/24 03:40:37;;;;;;;39.28;16.52;;;;;;;16.25;90.48;101547.91;5103212;28;20542;-58
2021/09/24 03:43:04;;;;;;;43.67;21.70;;;;;;;16.23;91.64;101554.81;5112856;28;20048;-58
2021/09/24 03:45:33;;;;;;;22.65;10.48;;;;;;;16.25;89.92;101549.84;5114688;28;20044;-56
2021/09/24 03:48:00;;;;;;;46.30;25.00;;;;;;;16.30;90.18;101556.13;5114619;27;20043;-55
2021/09/24 03:50:28;;;;;;;53.60;27.13;;;;;;;16.29;91.08;101548.16;5106105;28;20398;-57
2021/09/24 03:52:56;;;;;;;51.15;26.92;;;;;;;16.28;91.44;101549.25;5112712;28;20225;-58
2021/09/24 03:55:23;;;;;;;42.47;25.20;;;;;;;16.26;91.58;101544.06;5114189;28;20059;-59
2021/09/24 03:57:53;;;;;;;49.35;25.05;;;;;;;16.27;91.73;101550.38;5114101;28;20043;-58
2021/09/24 04:00:21;;;;;;;42.55;23.80;;;;;;;16.30;91.25;101560.81;5112686;28;20063;-58
2021/09/24 04:02:49;;;;;;;39.92;21.35;;;;;;;16.32;91.70;101553.09;5114362;28;20123;-59
2021/09/24 04:05:16;;;;;;;38.63;18.75;;;;;;;16.36;89.96;101554.16;5099634;28;20487;-58
2021/09/24 04:07:44;;;;;;;39.55;21.83;;;;;;;16.35;90.94;101547.81;5114234;28;20066;-57
2021/09/24 04:10:12;;;;;;;38.63;21.27;;;;;;;16.35;90.06;101545.06;5112177;28;20481;-58
2021/09/24 04:12:39;;;;;;;50.03;27.17;;;;;;;16.31;91.61;101543.22;5107887;28;20040;-55
2021/09/24 04:15:08;;;;;;;55.03;28.17;;;;;;;16.28;91.54;101549.25;5113818;28;20428;-58
2021/09/24 04:17:35;;;;;;;43.50;22.58;;;;;;;16.27;91.06;101544.88;5113925;28;20486;-56
2021/09/24 04:20:04;;;;;;;40.75;23.35;;;;;;;16.24;91.81;101546.28;5113854;28;20036;-58
2021/09/24 04:22:31;;;;;;;44.08;24.48;;;;;;;16.23;92.00;101552.88;5112176;28;20038;-59
2021/09/24 04:24:59;;;;;;;33.67;17.88;;;;;;;16.23;90.91;101555.63;5111711;28;20493;-57
2021/09/24 04:27:27;;;;;;;25.90;14.27;;;;;;;16.23;89.79;101549.31;5113123;28;20115;-57
2021/09/24 04:29:54;;;;;;;39.70;23.13;;;;;;;16.23;90.84;101557.56;5113691;28;20058;-57
2021/09/24 04:32:23;;;;;;;32.92;18.50;;;;;;;16.23;89.67;101552.88;5106301;28;20126;-57
2021/09/24 04:34:53;;;;;;;39.85;21.05;;;;;;;16.23;90.69;101554.81;5102022;28;20104;-56
2021/09/24 04:37:20;;;;;;;37.63;25.05;;;;;;;16.21;91.45;101554.28;5113654;28;20502;-56
2021/09/24 04:39:48;;;;;;;56.25;30.90;;;;;;;16.19;92.34;101554.59;5113385;28;20047;-58
2021/09/24 04:42:17;;;;;;;37.85;20.77;;;;;;;16.17;92.29;101543.03;5111429;28;20125;-58
2021/09/24 04:44:44;;;;;;;47.00;26.33;;;;;;;16.16;92.81;101552.38;5111813;28;20528;-58
2021/09/24 04:47:12;;;;;;;40.67;24.83;;;;;;;16.15;92.35;101550.75;5113440;28;20043;-58
2021/09/24 04:49:40;;;;;;;34.47;20.13;;;;;;;16.15;91.85;101548.81;5101258;28;20036;-57
2021/09/24 04:52:07;;;;;;;22.25;12.60;;;;;;;16.16;90.75;101544.97;5113310;28;20490;-59
2021/09/24 04:54:35;;;;;;;44.03;26.13;;;;;;;16.21;90.78;101551.53;5110762;28;20039;-57
2021/09/24 04:57:03;;;;;;;47.33;30.63;;;;;;;16.19;92.83;101565.59;5095808;28;20079;-58
2021/09/24 04:59:31;;;;;;;43.78;27.17;;;;;;;16.15;93.00;101565.31;5100295;28;20114;-58
2021/09/24 05:02:00;;;;;;;39.72;25.60;;;;;;;16.12;93.37;101560.41;5113080;28;20088;-58
2021/09/24 05:04:27;;;;;;;32.53;20.48;;;;;;;16.14;92.25;101560.94;5109445;28;20039;-55
2021/09/24 05:06:55;;;;;;;39.63;26.75;;;;;;;16.14;93.75;101557.38;5111390;28;20482;-59
2021/09/24 05:09:22;;;;;;;37.30;22.88;;;;;;;16.12;93.63;101554.09;5111279;28;20405;-58
2021/09/24 05:11:50;;;;;;;71.25;20.83;;;;;;;16.17;91.36;101545.78;5111138;28;20047;-59
2021/09/24 05:14:17;;;;;;;28.33;13.13;;;;;;;16.18;90.13;101563.91;5098297;28;20047;-58
2021/09/24 05:16:45;;;;;;;29.25;16.83;;;;;;;16.21;90.38;101568.03;5096581;28;20054;-58
2021/09/24 05:19:13;;;;;;;30.42;20.80;;;;;;;16.19;91.31;101566.41;5104267;28;20047;-58
2021/09/24 05:21:41;;;;;;;38.42;23.23;;;;;;;16.16;92.17;101563.38;5103759;28;20517;-53
2021/09/24 05:24:09;;;;;;;44.95;25.50;;;;;;;16.24;89.42;101568.28;5098700;28;20062;-57
2021/09/24 05:26:37;;;;;;;42.30;24.42;;;;;;;16.23;90.63;101565.81;5108455;28;20142;-57
2021/09/24 05:29:05;;;;;;;46.28;24.27;;;;;;;16.18;91.74;101570.22;5102431;28;20032;-55
2021/09/24 05:31:33;;;;;;;41.95;26.25;;;;;;;16.21;91.38;101573.53;5103138;28;20047;-59
2021/09/24 05:34:02;;;;;;;46.03;28.83;;;;;;;16.19;91.93;101566.41;5104104;28;20085;-56
2021/09/24 05:36:30;;;;;;;35.78;19.77;;;;;;;16.19;90.88;101569.16;5100343;28;20486;-58
2021/09/24 05:38:58;;;;;;;76.47;23.60;;;;;;;16.22;89.30;101569.69;5104268;28;20051;-55
2021/09/24 05:41:25;;;;;;;63.17;25.25;;;;;;;16.25;90.19;101574.59;5108636;28;20043;-57
2021/09/24 05:43:53;;;;;;;59.85;30.90;;;;;;;16.24;91.32;101571.03;5104542;28;20135;-57
2021/09/24 05:46:21;;;;;;;43.55;25.17;;;;;;;16.22;90.95;101573.25;5103749;28;20032;-58
2021/09/24 05:48:49;;;;;;;38.15;21.83;;;;;;;16.21;90.96;101570.78;4387637;28;10000660;-55
2021/09/24 05:51:16;;;;;;;46.85;20.48;;;;;;;16.23;90.48;101565.81;5105974;28;20553;-57
2021/09/24 05:53:44;;;;;;;39.80;21.02;;;;;;;16.23;90.18;101560.31;5106139;28;20421;-57
2021/09/24 05:56:12;;;;;;;38.50;22.08;;;;;;;16.26;89.51;101552.31;5106431;28;20038;-57
2021/09/24 05:58:40;;;;;;;33.83;21.63;;;;;;;16.24;90.46;101562.78;5105111;28;20494;-58
2021/09/24 06:01:08;;;;;;;50.83;28.10;;;;;;;16.25;90.38;101558.91;5103560;28;20040;-53
2021/09/24 06:03:36;;;;;;;50.42;27.30;;;;;;;16.26;90.60;101562.47;5105688;28;20063;-60
2021/09/24 06:06:03;;;;;;;45.03;26.08;;;;;;;16.22;90.91;101561.44;5103543;28;20128;-58
2021/09/24 06:08:31;;;;;;;32.13;19.08;;;;;;;16.16;91.02;101561.47;5105783;28;20119;-58
2021/09/24 06:10:59;;;;;;;51.38;29.42;;;;;;;16.18;91.09;101570.22;5109733;28;20066;-57
2021/09/24 06:13:26;;;;;;;38.78;24.25;;;;;;;16.14;91.63;101562.88;5109057;28;20047;-56
2021/09/24 06:15:54;;;;;;;39.63;23.80;;;;;;;16.16;91.25;101561.47;5105288;28;20031;-57
2021/09/24 06:18:22;;;;;;;40.45;22.33;;;;;;;16.22;89.57;101567.75;5091160;28;20032;-56
2021/09/24 06:20:50;;;;;;;44.00;25.05;;;;;;;16.19;91.30;101554.59;5090373;28;20487;-56
2021/09/24 06:23:17;;;;;;;38.00;22.25;;;;;;;16.16;91.51;101547.72;5100684;28;20040;-59
2021/09/24 06:25:47;;;;;;;37.17;20.30;;;;;;;16.23;89.23;101557.56;5105556;28;20074;-58
2021/09/24 06:28:15;;;;;;;34.72;20.73;;;;;;;16.31;89.58;101554.22;5104722;28;20043;-55
2021/09/24 06:30:42;;;;;;;36.17;22.23;;;;;;;16.30;89.77;101552.56;5093281;28;20043;-56
2021/09/24 06:33:10;;;;;;;32.53;19.48;;;;;;;16.33;88.89;101550.06;5100392;28;20046;-53
2021/09/24 06:35:38;;;;;;;37.45;21.90;;;;;;;16.39;88.41;101548.06;5104390;28;20044;-56
2021/09/24 06:38:05;;;;;;;37.33;21.52;;;;;;;16.35;89.19;101552.50;5107405;28;20044;-53
2021/09/24 06:40:33;;;;;;;38.70;22.52;;;;;;;16.29;90.30;101550.91;5102014;28;20050;-52
2021/09/24 06:43:01;;;;;;;33.15;19.98;;;;;;;16.32;89.93;101550.34;5107784;28;20043;-55
2021/09/24 06:45:31;;;;;;;30.35;18.27;;;;;;;16.34;88.78;101548.94;5104926;28;20044;-53
2021/09/24 06:47:59;;;;;;;30.95;20.23;;;;;;;16.38;88.93;101554.69;5095698;28;20036;-55
2021/09/24 06:50:27;;;;;;;35.88;18.83;;;;;;;16.39;87.88;101550.81;5102257;28;20046;-55
2021/09/24 06:52:54;;;;;;;29.98;16.65;;;;;;;16.45;87.81;101552.44;5108357;28;20551;-54
2021/09/24 06:55:25;;;;;;;31.38;19.67;;;;;;;16.45;88.43;101552.44;5108008;28;20042;-52
2021/09/24 06:57:54;;;;;;;34.92;21.00;;;;;;;16.38;90.31;101562.94;5107855;28;20067;-53
2021/09/24 07:00:22;;;;;;;37.25;21.88;;;;;;;16.33;90.79;101557.47;5109876;28;20130;-52
2021/09/24 07:02:50;;;;;;;27.02;17.17;;;;;;;16.36;88.97;101548.66;5105962;28;20044;-55
2021/09/24 07:05:18;;;;;;;31.90;20.40;;;;;;;16.35;88.92;101558.81;5110700;28;20071;-55
2021/09/24 07:07:45;;;;;;;31.23;18.10;;;;;;;16.37;88.74;101553.03;5111877;28;20044;-55
2021/09/24 07:10:13;;;;;;;37.97;24.45;;;;;;;16.32;90.57;101559.41;5115554;28;20040;-56
2021/09/24 07:12:42;;;;;;;35.58;21.83;;;;;;;16.35;90.45;101552.50;5114647;27;20063;-53
2021/09/24 07:15:10;;;;;;;32.72;21.45;;;;;;;16.30;90.83;101556.13;5111043;28;20047;-56
2021/09/24 07:17:37;;;;;;;32.53;19.77;;;;;;;16.32;90.27;101558.59;5111065;28;20035;-51
2021/09/24 07:20:09;;;;;;;32.17;19.55;;;;;;;16.40;88.54;101560.69;5103061;28;20036;-53
2021/09/24 07:22:37;;;;;;;38.00;24.65;;;;;;;16.40;89.29;101566.19;5103105;28;20047;-56
2021/09/24 07:25:05;;;;;;;28.83;18.52;;;;;;;16.37;89.31;101561.28;5103949;28;20039;-55
2021/09/24 07:27:33;;;;;;;36.05;20.27;;;;;;;16.37;89.38;101561.28;5101007;28;20028;-52
2021/09/24 07:30:01;;;;;;;40.67;22.15;;;;;;;16.40;89.33;101556.03;5109751;28;20127;-55
2021/09/24 07:32:29;;;;;;;45.90;25.98;;;;;;;16.42;90.21;101555.72;5108033;28;20038;-53
2021/09/24 07:34:56;;;;;;;33.47;21.67;;;;;;;16.40;90.34;101558.78;5101152;28;20035;-52
2021/09/24 07:37:24;;;;;;;30.55;18.90;;;;;;;16.42;89.40;101558.50;5106851;28;20111;-56
2021/09/24 07:39:51;;;;;;;37.60;22.77;;;;;;;16.46;89.27;101559.56;5109089;28;20036;-54
2021/09/24 07:42:19;;;;;;;31.67;20.98;;;;;;;16.46;90.19;101565.06;5105292;28;20033;-54
2021/09/24 07:44:47;;;;;;;38.50;24.70;;;;;;;16.53;89.54;101567.47;5105538;28;20044;-57
2021/09/24 07:47:15;;;;;;;42.20;26.40;;;;;;;16.54;90.07;101567.16;5104352;28;20035;-53
2021/09/24 07:49:44;;;;;;;43.35;25.88;;;;;;;16.53;89.71;101564.72;5108704;28;20035;-52
2021/09/24 07:52:12;;;;;;;31.20;21.63;;;;;;;16.50;89.61;101563.38;5097573;28;20498;-56
2021/09/24 07:54:40;;;;;;;41.45;25.85;;;;;;;16.52;89.49;101561.13;5108666;28;20508;-56
2021/09/24 07:57:07;;;;;;;30.65;19.80;;;;;;;16.50;90.01;101557.88;5106642;28;20130;-52
2021/09/24 07:59:35;;;;;;;38.45;23.38;;;;;;;16.47;90.56;101561.19;5107257;28;20042;-56
2021/09/24 08:02:04;;;;;;;24.52;13.18;;;;;;;16.52;88.48;101563.06;5109223;28;20126;-56
2021/09/24 08:04:35;;;;;;;28.15;17.70;;;;;;;16.65;87.73;101573.41;5106063;28;20067;-56
2021/09/24 08:07:05;;;;;;;35.10;21.90;;;;;;;16.75;87.99;101569.72;5110768;28;20039;-55
2021/09/24 08:09:32;;;;;;;36.95;21.75;;;;;;;16.79;87.85;101568.06;5110626;28;20122;-56
2021/09/24 08:12:00;;;;;;;31.65;17.80;;;;;;;16.79;87.87;101576.34;5114190;28;20063;-54
2021/09/24 08:14:28;;;;;;;32.58;21.73;;;;;;;16.85;87.10;101571.59;5112591;28;20040;-53
2021/09/24 08:16:56;;;;;;;37.90;23.75;;;;;;;16.81;88.53;101566.66;5113773;27;20746;-56
2021/09/24 08:19:24;;;;;;;32.70;20.33;;;;;;;16.79;87.37;101568.88;5105177;28;20046;-54
2021/09/24 08:21:52;;;;;;;37.45;21.60;;;;;;;16.91;88.00;101576.75;5109131;28;20039;-52
2021/09/24 08:24:22;;;;;;;36.42;25.90;;;;;;;16.90;87.89;101575.09;5112855;28;20498;-50
2021/09/24 08:26:50;;;;;;;39.00;27.17;;;;;;;16.87;88.95;101575.69;5101673;28;20115;-53
2021/09/24 08:29:18;;;;;;;25.75;17.00;;;;;;;16.91;87.03;101574.00;5113974;28;20498;-56
2021/09/24 08:31:45;;;;;;;34.58;14.70;;;;;;;17.06;85.66;101577.69;5113768;28;20036;-54
2021/09/24 08:34:13;;;;;;;29.20;20.13;;;;;;;17.02;86.88;101581.00;5109157;28;20549;-55
2021/09/24 08:36:41;;;;;;;25.90;16.27;;;;;;;16.97;86.89;101580.25;5106150;28;20039;-53
2021/09/24 08:39:11;;;;;;;30.50;19.40;;;;;;;17.12;86.83;101587.50;5113774;28;20082;-55
2021/09/24 08:41:39;;;;;;;40.10;28.25;;;;;;;17.10;87.42;101586.97;5113699;28;20087;-53
2021/09/24 08:44:06;;;;;;;23.70;16.42;;;;;;;17.01;86.89;101592.31;5112580;28;20448;-55
2021/09/24 08:46:34;;;;;;;36.47;27.10;;;;;;;17.01;87.92;101584.88;5102878;28;20459;-51
2021/09/24 08:49:05;;;;;;;27.35;18.50;;;;;;;16.97;87.38;101581.06;5108214;28;20126;-56
2021/09/24 08:51:35;;;;;;;39.30;29.67;;;;;;;16.94;88.61;101578.91;5113574;28;20036;-55
2021/09/24 08:54:04;;;;;;;38.42;26.15;;;;;;;16.94;88.81;101581.66;5112954;28;20032;-55
2021/09/24 08:56:32;;;;;;;34.00;22.23;;;;;;;16.94;88.24;101587.16;5103752;28;20490;-52
2021/09/24 08:58:59;;;;;;;43.03;28.83;;;;;;;16.94;88.96;101589.09;5113169;28;20118;-55
2021/09/24 09:01:27;;;;;;;27.77;19.60;;;;;;;16.97;88.46;101588.50;5112662;28;20473;-56
2021/09/24 09:03:57;;;;;;;36.17;23.95;;;;;;;16.96;88.95;101590.44;5112682;28;20043;-55
2021/09/24 09:06:29;;;;;;;34.60;22.55;;;;;;;16.99;88.78;101589.03;5109671;28;20101;-56
2021/09/24 09:09:04;;;;;;;31.50;21.30;;;;;;;17.03;87.90;101588.16;5111153;28;20073;-54
2021/09/24 09:11:32;;;;;;;33.70;24.85;;;;;;;17.06;88.16;101594.22;5112865;28;20510;-53
2021/09/24 09:14:01;;;;;;;33.67;25.50;;;;;;;17.04;88.99;101587.03;5112842;28;20063;-53
2021/09/24 09:16:31;;;;;;;26.13;18.60;;;;;;;17.08;88.00;101576.28;5110852;28;20035;-53
2021/09/24 09:19:15;;;;;;;37.88;29.42;;;;;;;17.04;88.69;101581.53;5110938;28;20040;-53
2021/09/24 09:21:45;;;;;;;36.42;26.77;;;;;;;17.07;88.58;101579.31;5112592;28;20573;-55
2021/09/24 09:24:31;;;;;;;37.13;28.20;;;;;;;17.09;88.52;101571.59;5112974;28;20042;-53
2021/09/24 09:27:19;;;;;;;31.85;25.45;;;;;;;17.09;88.81;101577.09;5109086;28;20035;-52
2021/09/24 09:30:13;;;;;;;21.75;15.20;;;;;;;17.12;87.33;101566.28;5109845;28;20379;-51
2021/09/24 09:32:42;;;;;;;22.05;16.70;;;;;;;17.30;86.51;101578.47;5110618;27;20044;-52
2021/09/24 09:35:10;;;;;;;33.13;25.00;;;;;;;17.36;87.10;101570.97;5104420;28;20093;-56
2021/09/24 09:37:39;;;;;;;31.48;22.35;;;;;;;17.38;87.08;101572.31;5110545;28;20538;-50
2021/09/24 09:40:16;;;;;;;30.77;23.58;;;;;;;17.45;86.16;101570.00;5100246;28;20191;-52
2021/09/24 09:42:45;;;;;;;30.35;24.23;;;;;;;17.53;85.79;101568.53;5111665;28;20122;-52
2021/09/24 09:45:18;;;;;;;28.10;21.52;;;;;;;17.52;85.54;101574.34;5111910;28;20067;-55
2021/09/24 09:47:47;;;;;;;24.25;18.15;;;;;;;17.55;85.23;101559.97;5112024;28;20046;-54
2021/09/24 09:50:17;;;;;;;31.40;24.33;;;;;;;17.52;85.52;101571.59;5110137;28;20036;-51
2021/09/24 09:53:07;;;;;;;33.53;25.08;;;;;;;17.43;86.03;101565.91;5112416;28;20040;-57
2021/09/24 09:55:40;;;;;;;29.35;21.20;;;;;;;17.41;86.44;101566.22;5094301;28;20039;-53
2021/09/24 09:58:10;;;;;;;31.45;22.90;;;;;;;17.44;86.34;101567.56;5110014;28;20506;-52
2021/09/24 10:00:59;;;;;;;29.23;23.63;;;;;;;17.42;86.15;101564.28;5108761;28;20036;-51
2021/09/24 10:03:40;;;;;;;32.97;24.75;;;;;;;17.39;86.68;101564.84;5099614;28;20427;-53
2021/09/24 10:06:26;;;;;;;22.42;17.27;;;;;;;17.44;84.83;101562.88;5112031;28;20448;-53
2021/09/24 10:08:59;;;;;;;29.95;22.88;;;;;;;17.46;85.61;101566.16;5107550;28;20039;-55
2021/09/24 10:11:32;;;;;;;29.63;22.77;;;;;;;17.50;85.45;101565.56;5106302;28;20080;-53
2021/09/24 10:14:11;;;;;;;38.40;24.92;;;;;;;17.48;85.58;101562.28;5097881;28;20047;-55
2021/09/24 10:16:47;;;;;;;30.05;16.45;;;;;;;17.52;84.70;101557.81;5101711;28;20048;-52
2021/09/24 10:19:16;;;;;;;28.67;20.48;;;;;;;17.54;84.92;101556.41;5111876;28;20126;-53
2021/09/24 10:21:51;;;;;;;17.90;12.93;;;;;;;17.64;82.87;101552.69;5103409;28;20056;-54
2021/09/24 10:24:19;;;;;;;18.42;12.57;;;;;;;17.72;82.78;101554.75;5108074;28;20040;-50
2021/09/24 10:26:57;;;;;;;21.02;16.25;;;;;;;17.83;82.58;101553.50;5095927;28;20040;-49
2021/09/24 10:29:31;;;;;;;26.00;21.05;;;;;;;17.78;83.52;101544.47;5096325;28;20040;-53
2021/09/24 10:32:20;;;;;;;21.17;16.48;;;;;;;17.87;82.08;101554.56;5096791;28;20406;-55
2021/09/24 10:35:08;;;;;;;24.13;18.10;;;;;;;17.81;83.30;101544.72;5099718;28;20517;-55
2021/09/24 10:37:41;;;;;;;25.15;19.58;;;;;;;17.82;82.74;101549.13;5103049;28;20114;-52
2021/09/24 10:40:21;;;;;;;25.75;18.92;;;;;;;17.77;83.07;101543.63;5101965;28;20032;-52
2021/09/24 10:42:56;;;;;;;15.38;10.63;;;;;;;17.83;81.32;101541.69;5107300;28;20046;-52
2021/09/24 10:45:42;;;;;;;14.65;10.63;;;;;;;17.86;82.19;101541.06;5108675;28;20040;-55
2021/09/24 10:48:26;;;;;;;19.92;14.07;;;;;;;17.94;80.95;101542.31;5101880;28;20054;-54
2021/09/24 10:51:04;;;;;;;24.02;17.35;;;;;;;17.90;82.37;101541.31;5103452;28;20048;-51
2021/09/24 10:53:39;;;;;;;25.20;19.73;;;;;;;17.90;82.23;101544.06;5103400;28;20042;-50
2021/09/24 10:56:06;;;;;;;24.83;17.63;;;;;;;17.87;82.37;101535.25;5104582;28;20040;-55
2021/09/24 10:58:36;;;;;;;18.45;10.57;;;;;;;17.93;80.28;101532.44;5103960;27;20051;-56
2021/09/24 11:01:06;;;;;;;21.63;16.80;;;;;;;17.97;81.69;101539.00;5103452;28;20058;-55
2021/09/24 11:03:56;;;;;;;20.08;14.55;;;;;;;17.97;81.51;101530.72;5104558;28;20118;-56
2021/09/24 11:06:46;;;;;;;18.88;13.73;;;;;;;18.06;80.42;101528.88;5104882;28;20075;-52
2021/09/24 11:09:21;;;;;;;13.90;9.73;;;;;;;18.05;79.52;101533.59;5115632;28;20383;-52
2021/09/24 11:12:00;;;;;;;17.17;11.27;;;;;;;18.07;79.84;101530.53;5114677;28;20047;-53
2021/09/24 11:14:36;;;;;;;22.20;18.90;;;;;;;18.13;80.04;101517.47;5113847;28;20044;-55
2021/09/24 11:17:06;;;;;;;19.63;9.55;;;;;;;18.11;79.06;101526.03;5115164;28;20038;-53
2021/09/24 11:19:38;;;;;;;20.58;13.55;;;;;;;18.13;79.12;101515.53;5093608;28;20402;-55
2021/09/24 11:22:13;;;;;;;17.23;11.57;;;;;;;18.13;79.47;101512.75;5112278;28;20036;-54
2021/09/24 11:24:42;;;;;;;14.07;9.93;;;;;;;18.12;79.16;101516.66;5114840;28;20054;-53